Time;durP1;ratioP1;P1;durP2;ratioP2;P2;SDS_P1;SDS_P2;PMS_P1;PMS_P2;Temp;Humidity;BMP_temperature;BMP_pressure;BME280_temperature;BME280_humidity;BME280_pressure;Samples;Min_cycle;Max_cycle;Signal;HPM_P1;HPM_P2
2024/04/19 00:00:59;;;;;;;1.02;0.60;;;;;;;;;;5259755;27;20013;-57
2024/04/19 00:03:25;;;;;;;0.65;0.30;;;;;;;;;;5286381;26;20053;-57
2024/04/19 00:05:52;;;;;;;2.90;0.43;;;;;;;;;;5287234;26;20018;-55
2024/04/19 00:08:18;;;;;;;0.73;0.50;;;;;;;;;;5288293;26;20005;-55
2024/04/19 00:10:46;;;;;;;0.30;0.30;;;;;;;;;;5259039;27;20079;-58
2024/04/19 00:13:12;;;;;;;0.55;0.30;;;;;;;;;;5287206;26;20967;-56
2024/04/19 00:15:42;;;;;;;0.30;0.30;;;;;;;;;;5285276;27;19997;-57
2024/04/19 00:18:08;;;;;;;1.48;0.30;;;;;;;;;;5284913;27;20006;-58
2024/04/19 00:20:35;;;;;;;0.40;0.30;;;;;;;;;;5267512;26;20470;-55
2024/04/19 00:23:02;;;;;;;0.30;0.20;;;;;;;;;;5286969;26;20005;-57
2024/04/19 00:25:28;;;;;;;0.47;0.30;;;;;;;;;;5286105;27;20011;-59
2024/04/19 00:27:56;;;;;;;0.22;0.22;;;;;;;;;;5287678;26;20012;-57
2024/04/19 00:30:23;;;;;;;0.45;0.32;;;;;;;;;;5287986;27;20036;-57
2024/04/19 00:32:49;;;;;;;1.63;0.30;;;;;;;;;;5286991;26;20002;-57
2024/04/19 00:35:16;;;;;;;0.40;0.30;;;;;;;;;;5290187;26;20005;-58
2024/04/19 00:37:43;;;;;;;0.32;0.30;;;;;;;;;;5289408;26;20030;-53
2024/04/19 00:40:09;;;;;;;0.60;0.35;;;;;;;;;;5288197;26;20038;-57
2024/04/19 00:42:57;;;;;;;0.43;0.30;;;;;;;;;;5317647;26;20001;-58
2024/04/19 00:45:26;;;;;;;0.20;0.20;;;;;;;;;;5321572;26;20011;-56
2024/04/19 00:47:53;;;;;;;0.95;0.20;;;;;;;;;;5320557;26;20381;-58
2024/04/19 00:50:19;;;;;;;0.65;0.30;;;;;;;;;;5321082;26;20000;-57
2024/04/19 00:52:46;;;;;;;0.63;0.30;;;;;;;;;;5298051;26;20008;-55
2024/04/19 00:55:13;;;;;;;0.90;0.57;;;;;;;;;;5320387;26;20478;-57
2024/04/19 00:57:40;;;;;;;0.65;0.35;;;;;;;;;;5319750;26;20103;-56
2024/04/19 01:00:10;;;;;;;0.22;0.20;;;;;;;;;;5311830;26;20009;-54
2024/04/19 01:02:37;;;;;;;0.20;0.20;;;;;;;;;;5317582;26;20052;-57
2024/04/19 01:05:04;;;;;;;0.63;0.25;;;;;;;;;;5318038;26;20051;-54
2024/04/19 01:07:31;;;;;;;1.20;0.50;;;;;;;;;;5321052;26;20020;-58
2024/04/19 01:10:18;;;;;;;0.38;0.35;;;;;;;;;;5291311;26;20024;-57
2024/04/19 01:12:44;;;;;;;0.40;0.30;;;;;;;;;;5290270;26;20505;-60
2024/04/19 01:15:17;;;;;;;1.27;0.25;;;;;;;;;;5290788;26;20069;-57
2024/04/19 01:17:44;;;;;;;0.80;0.40;;;;;;;;;;5290458;26;20685;-57
2024/04/19 01:20:11;;;;;;;0.50;0.28;;;;;;;;;;5265194;26;20011;-58
2024/04/19 01:22:38;;;;;;;0.20;0.10;;;;;;;;;;5223712;27;22200;-57
2024/04/19 01:25:05;;;;;;;1.65;0.32;;;;;;;;;;5223140;26;20101;-58
2024/04/19 01:27:32;;;;;;;4.85;0.43;;;;;;;;;;5221292;27;20018;-59
2024/04/19 01:29:58;;;;;;;0.22;0.22;;;;;;;;;;5223386;27;20062;-61
2024/04/19 01:32:25;;;;;;;0.50;0.50;;;;;;;;;;5221877;27;20038;-60
2024/04/19 01:34:52;;;;;;;0.25;0.25;;;;;;;;;;5225615;27;20015;-56
2024/04/19 01:37:20;;;;;;;0.40;0.28;;;;;;;;;;5222173;27;20014;-57
2024/04/19 01:39:46;;;;;;;0.30;0.20;;;;;;;;;;5175450;27;20047;-61
2024/04/19 01:42:13;;;;;;;2.45;0.30;;;;;;;;;;5223821;27;20196;-55
2024/04/19 01:44:40;;;;;;;2.22;0.47;;;;;;;;;;5224020;27;20957;-53
2024/04/19 01:47:06;;;;;;;0.30;0.30;;;;;;;;;;5211217;26;20019;-59
2024/04/19 01:49:33;;;;;;;1.85;0.20;;;;;;;;;;5287321;26;20825;-57
2024/04/19 01:52:00;;;;;;;0.47;0.38;;;;;;;;;;5287794;26;20072;-57
2024/04/19 01:54:26;;;;;;;0.30;0.30;;;;;;;;;;5287629;26;20359;-60
2024/04/19 01:56:58;;;;;;;1.70;0.50;;;;;;;;;;5289257;26;20010;-57
2024/04/19 01:59:27;;;;;;;2.58;0.50;;;;;;;;;;5288212;26;20161;-55
2024/04/19 02:01:54;;;;;;;2.58;0.40;;;;;;;;;;5288987;26;20017;-55
2024/04/19 02:04:22;;;;;;;0.40;0.40;;;;;;;;;;5300990;26;20044;-56
2024/04/19 02:06:48;;;;;;;1.13;0.47;;;;;;;;;;5289063;26;20045;-58
2024/04/19 02:09:15;;;;;;;2.53;0.38;;;;;;;;;;5292100;26;20017;-57
2024/04/19 02:11:41;;;;;;;0.55;0.43;;;;;;;;;;5284173;26;20045;-56
2024/04/19 02:14:08;;;;;;;1.20;0.50;;;;;;;;;;5312877;26;20052;-53
2024/04/19 02:16:35;;;;;;;0.70;0.20;;;;;;;;;;5304830;26;20012;-59
2024/04/19 02:19:02;;;;;;;0.15;0.10;;;;;;;;;;5292505;26;20005;-57
2024/04/19 02:21:28;;;;;;;1.75;0.40;;;;;;;;;;5289828;26;19998;-59
2024/04/19 02:23:55;;;;;;;0.30;0.25;;;;;;;;;;5289648;26;20041;-53
2024/04/19 02:26:22;;;;;;;0.50;0.20;;;;;;;;;;5289815;26;20080;-63
2024/04/19 02:31:34;;;;;;;1.02;0.28;;;;;;;;;;5290016;26;20083;-58
2024/04/19 02:34:00;;;;;;;0.85;0.40;;;;;;;;;;5289875;26;20012;-55
2024/04/19 02:36:27;;;;;;;0.20;0.20;;;;;;;;;;5287414;26;20010;-54
2024/04/19 02:38:53;;;;;;;0.30;0.22;;;;;;;;;;5302167;26;19998;-58
2024/04/19 02:41:20;;;;;;;0.45;0.30;;;;;;;;;;5261121;26;20022;-62
2024/04/19 02:43:47;;;;;;;0.77;0.40;;;;;;;;;;5285043;26;20025;-57
2024/04/19 02:46:17;;;;;;;0.55;0.15;;;;;;;;;;5291222;26;20446;-56
2024/04/19 02:48:45;;;;;;;2.95;0.50;;;;;;;;;;5289667;26;20335;-56
2024/04/19 02:51:12;;;;;;;0.15;0.10;;;;;;;;;;5293609;26;20079;-59
2024/04/19 02:53:39;;;;;;;0.55;0.55;;;;;;;;;;5292528;26;20012;-57
2024/04/19 02:56:07;;;;;;;0.20;0.20;;;;;;;;;;5292894;26;20012;-57
2024/04/19 02:58:33;;;;;;;0.43;0.43;;;;;;;;;;5292014;26;20386;-59
2024/04/19 03:01:00;;;;;;;0.60;0.30;;;;;;;;;;5293079;26;20002;-59
2024/04/19 03:03:26;;;;;;;0.73;0.70;;;;;;;;;;5291294;26;20024;-56
2024/04/19 03:05:54;;;;;;;0.20;0.20;;;;;;;;;;5292280;26;20499;-59
2024/04/19 03:08:43;;;;;;;0.60;0.32;;;;;;;;;;5320719;26;20044;-57
2024/04/19 03:11:09;;;;;;;0.25;0.22;;;;;;;;;;5296593;26;20019;-58
2024/04/19 03:13:36;;;;;;;0.95;0.40;;;;;;;;;;5323453;26;20438;-56
2024/04/19 03:16:03;;;;;;;0.50;0.50;;;;;;;;;;5324507;26;20009;-59
2024/04/19 03:18:30;;;;;;;0.20;0.20;;;;;;;;;;5325566;26;20088;-58
2024/04/19 03:21:00;;;;;;;0.40;0.40;;;;;;;;;;5324071;26;20099;-60
2024/04/19 03:23:27;;;;;;;1.95;0.50;;;;;;;;;;5324393;26;20000;-54
2024/04/19 03:25:57;;;;;;;0.03;0.03;;;;;;;;;;5325668;26;20593;-60
2024/04/19 03:28:24;;;;;;;0.13;0.10;;;;;;;;;;5296155;26;20009;-57
2024/04/19 03:30:50;;;;;;;0.52;0.28;;;;;;;;;;5323535;26;20579;-57
2024/04/19 03:33:17;;;;;;;1.00;0.47;;;;;;;;;;5322920;26;20095;-59
2024/04/19 03:35:43;;;;;;;3.58;0.20;;;;;;;;;;5323366;26;20028;-60
2024/04/19 03:38:14;;;;;;;0.98;0.38;;;;;;;;;;5324519;26;20037;-57
2024/04/19 03:40:41;;;;;;;0.60;0.30;;;;;;;;;;5239043;26;20049;-58
2024/04/19 03:43:10;;;;;;;0.63;0.63;;;;;;;;;;5300148;26;20013;-59
2024/04/19 03:45:44;;;;;;;0.28;0.28;;;;;;;;;;5303961;26;20021;-55
2024/04/19 03:48:14;;;;;;;0.25;0.20;;;;;;;;;;5290742;26;20017;-58
2024/04/19 03:50:46;;;;;;;0.90;0.47;;;;;;;;;;5292606;26;20097;-57
2024/04/19 03:53:12;;;;;;;0.30;0.22;;;;;;;;;;5289520;26;20029;-57
2024/04/19 03:55:40;;;;;;;0.10;0.10;;;;;;;;;;5293476;26;20496;-58
2024/04/19 03:58:06;;;;;;;0.40;0.40;;;;;;;;;;5294634;26;20005;-60
2024/04/19 04:00:53;;;;;;;0.25;0.25;;;;;;;;;;5292730;26;20005;-59
2024/04/19 04:03:19;;;;;;;1.77;0.50;;;;;;;;;;5288981;27;20021;-57
2024/04/19 04:05:52;;;;;;;7.97;0.60;;;;;;;;;;5288861;27;20014;-56
2024/04/19 04:08:19;;;;;;;0.82;0.77;;;;;;;;;;5250108;27;20006;-58
2024/04/19 04:10:45;;;;;;;1.75;0.20;;;;;;;;;;5248678;27;20463;-58
2024/04/19 04:13:12;;;;;;;0.50;0.30;;;;;;;;;;5288073;27;20012;-59
2024/04/19 04:15:38;;;;;;;2.60;0.50;;;;;;;;;;5288056;26;20013;-55
2024/04/19 04:18:05;;;;;;;0.52;0.30;;;;;;;;;;5290404;27;20584;-56
2024/04/19 04:20:32;;;;;;;0.20;0.15;;;;;;;;;;5264332;27;20361;-58
2024/04/19 04:22:59;;;;;;;1.25;0.50;;;;;;;;;;5289619;27;20108;-58
2024/04/19 04:25:26;;;;;;;0.60;0.32;;;;;;;;;;5289665;26;20005;-57
2024/04/19 04:27:53;;;;;;;0.50;0.50;;;;;;;;;;5288870;27;20002;-59
2024/04/19 04:30:19;;;;;;;0.17;0.17;;;;;;;;;;5287091;26;20308;-58
2024/04/19 04:32:46;;;;;;;2.70;0.32;;;;;;;;;;5258524;27;20010;-54
2024/04/19 04:35:13;;;;;;;1.40;0.30;;;;;;;;;;5290762;26;20016;-58
2024/04/19 04:37:39;;;;;;;0.20;0.20;;;;;;;;;;5290298;26;20491;-55
2024/04/19 04:40:06;;;;;;;1.38;0.30;;;;;;;;;;5291120;26;20006;-58
2024/04/19 04:42:33;;;;;;;0.65;0.50;;;;;;;;;;5288786;26;20753;-56
2024/04/19 04:44:59;;;;;;;0.40;0.30;;;;;;;;;;5290477;26;20032;-59
2024/04/19 04:47:26;;;;;;;0.20;0.20;;;;;;;;;;5291185;26;20009;-56
2024/04/19 04:49:53;;;;;;;0.50;0.40;;;;;;;;;;5289625;26;20009;-59
2024/04/19 04:52:19;;;;;;;0.22;0.22;;;;;;;;;;5290179;26;20010;-57
2024/04/19 04:54:46;;;;;;;0.85;0.30;;;;;;;;;;5290439;26;20038;-60
2024/04/19 04:57:12;;;;;;;0.25;0.25;;;;;;;;;;5291313;26;20001;-59
2024/04/19 04:59:39;;;;;;;2.22;0.40;;;;;;;;;;5290127;26;20002;-57
2024/04/19 05:02:06;;;;;;;0.80;0.30;;;;;;;;;;5290372;26;20010;-58
2024/04/19 05:04:32;;;;;;;0.77;0.50;;;;;;;;;;5290500;26;20012;-59
2024/04/19 05:06:59;;;;;;;1.80;0.40;;;;;;;;;;5291230;26;20005;-59
2024/04/19 05:09:26;;;;;;;0.30;0.22;;;;;;;;;;5288890;26;20012;-56
2024/04/19 05:11:53;;;;;;;0.55;0.35;;;;;;;;;;5290967;26;20511;-58
2024/04/19 05:14:19;;;;;;;0.32;0.20;;;;;;;;;;5288455;26;20012;-58
2024/04/19 05:16:46;;;;;;;2.38;0.70;;;;;;;;;;5289631;26;20557;-56
2024/04/19 05:19:13;;;;;;;2.42;0.30;;;;;;;;;;5289365;26;20034;-54
2024/04/19 05:21:39;;;;;;;0.88;0.47;;;;;;;;;;5289027;26;20001;-55
2024/04/19 05:24:06;;;;;;;0.40;0.40;;;;;;;;;;5290114;26;20953;-56
2024/04/19 05:26:33;;;;;;;0.30;0.30;;;;;;;;;;5289802;26;20013;-58
2024/04/19 05:28:59;;;;;;;0.40;0.30;;;;;;;;;;5289958;26;20049;-55
2024/04/19 05:31:26;;;;;;;0.77;0.55;;;;;;;;;;5289502;26;20414;-56
2024/04/19 05:33:53;;;;;;;0.65;0.60;;;;;;;;;;5289543;26;20265;-57
2024/04/19 05:36:19;;;;;;;4.50;0.55;;;;;;;;;;5288876;26;20038;-55
2024/04/19 05:38:46;;;;;;;6.38;0.60;;;;;;;;;;5289153;26;20001;-57
2024/04/19 05:41:13;;;;;;;0.50;0.20;;;;;;;;;;5289236;26;20025;-56
2024/04/19 05:43:40;;;;;;;0.50;0.50;;;;;;;;;;5287773;26;20009;-56
2024/04/19 05:46:06;;;;;;;0.57;0.43;;;;;;;;;;5290480;26;20108;-57
2024/04/19 05:48:33;;;;;;;4.45;0.55;;;;;;;;;;5288868;26;20001;-57
2024/04/19 05:50:59;;;;;;;2.08;0.60;;;;;;;;;;5289933;26;20071;-55
2024/04/19 05:53:26;;;;;;;1.00;0.35;;;;;;;;;;5288197;26;20016;-55
2024/04/19 05:55:53;;;;;;;0.30;0.30;;;;;;;;;;5289120;26;20377;-55
2024/04/19 05:58:21;;;;;;;0.30;0.30;;;;;;;;;;5272602;26;20021;-54
2024/04/19 06:00:48;;;;;;;3.05;0.40;;;;;;;;;;5289322;26;20012;-56
2024/04/19 06:03:15;;;;;;;0.47;0.40;;;;;;;;;;5289704;26;20002;-57
2024/04/19 06:05:41;;;;;;;0.70;0.55;;;;;;;;;;5289024;26;20024;-55
2024/04/19 06:08:08;;;;;;;0.80;0.50;;;;;;;;;;5287230;26;21321;-59
2024/04/19 06:10:35;;;;;;;1.25;0.30;;;;;;;;;;5278790;26;20852;-57
2024/04/19 06:13:01;;;;;;;1.42;0.60;;;;;;;;;;5289679;26;20386;-58
2024/04/19 06:15:28;;;;;;;1.00;0.40;;;;;;;;;;5290666;26;20015;-56
2024/04/19 06:17:54;;;;;;;1.65;0.30;;;;;;;;;;5290562;26;19997;-54
2024/04/19 06:20:21;;;;;;;0.40;0.10;;;;;;;;;;5290591;26;20140;-54
2024/04/19 06:22:48;;;;;;;0.52;0.35;;;;;;;;;;5289469;26;20013;-55
2024/04/19 06:25:14;;;;;;;0.30;0.30;;;;;;;;;;5281324;26;20008;-53
2024/04/19 06:27:41;;;;;;;0.28;0.28;;;;;;;;;;5291035;26;20877;-60
2024/04/19 06:30:08;;;;;;;1.83;0.55;;;;;;;;;;5290183;26;20013;-63
2024/04/19 06:32:34;;;;;;;2.80;0.50;;;;;;;;;;5289861;26;20009;-58
2024/04/19 06:35:01;;;;;;;0.73;0.57;;;;;;;;;;5291585;26;20722;-53
2024/04/19 06:37:28;;;;;;;3.03;0.52;;;;;;;;;;5291933;26;20374;-58
2024/04/19 06:39:54;;;;;;;0.55;0.55;;;;;;;;;;5291512;26;20005;-54
2024/04/19 06:42:21;;;;;;;0.50;0.30;;;;;;;;;;5291369;26;20020;-59
2024/04/19 06:44:48;;;;;;;1.20;0.25;;;;;;;;;;5291518;26;20457;-57
2024/04/19 06:47:15;;;;;;;0.43;0.35;;;;;;;;;;5291408;26;19997;-57
2024/04/19 06:49:42;;;;;;;0.40;0.20;;;;;;;;;;5289972;26;20009;-58
2024/04/19 06:52:09;;;;;;;0.17;0.10;;;;;;;;;;5290219;26;19998;-53
2024/04/19 06:54:36;;;;;;;1.25;0.30;;;;;;;;;;5293297;26;20017;-55
2024/04/19 06:57:02;;;;;;;0.40;0.40;;;;;;;;;;5294894;26;19994;-56
2024/04/19 06:59:29;;;;;;;1.15;0.63;;;;;;;;;;5293906;26;20013;-57
2024/04/19 07:01:56;;;;;;;0.47;0.38;;;;;;;;;;5292864;26;20112;-64
2024/04/19 07:04:22;;;;;;;0.73;0.40;;;;;;;;;;5292901;26;20009;-57
2024/04/19 07:06:49;;;;;;;0.40;0.10;;;;;;;;;;5291333;26;20013;-57
2024/04/19 07:09:16;;;;;;;2.25;0.50;;;;;;;;;;5294681;26;19997;-56
2024/04/19 07:11:42;;;;;;;0.98;0.63;;;;;;;;;;5298898;26;20045;-56
2024/04/19 07:14:09;;;;;;;1.05;0.45;;;;;;;;;;5300568;26;20042;-56
2024/04/19 07:16:36;;;;;;;0.38;0.30;;;;;;;;;;5291066;26;20016;-55
2024/04/19 07:19:02;;;;;;;0.68;0.40;;;;;;;;;;5293692;26;20005;-57
2024/04/19 07:21:29;;;;;;;0.30;0.20;;;;;;;;;;5292832;26;19998;-57
2024/04/19 07:23:56;;;;;;;0.40;0.40;;;;;;;;;;5293812;26;19998;-57
2024/04/19 07:26:23;;;;;;;1.60;0.40;;;;;;;;;;5293732;26;20002;-57
2024/04/19 07:28:50;;;;;;;2.72;0.45;;;;;;;;;;5293491;26;20002;-57
2024/04/19 07:31:16;;;;;;;0.40;0.30;;;;;;;;;;5281174;27;20017;-53
2024/04/19 07:33:43;;;;;;;0.10;0.10;;;;;;;;;;5291024;26;20462;-58
2024/04/19 07:36:10;;;;;;;0.50;0.50;;;;;;;;;;5294320;26;20049;-56
2024/04/19 07:38:37;;;;;;;0.13;0.10;;;;;;;;;;5290198;26;20009;-59
2024/04/19 07:41:23;;;;;;;0.25;0.22;;;;;;;;;;5277716;27;20350;-57
2024/04/19 07:43:50;;;;;;;0.32;0.20;;;;;;;;;;5275570;27;20672;-56
2024/04/19 07:46:17;;;;;;;0.10;0.10;;;;;;;;;;5273334;27;20108;-56
2024/04/19 07:48:43;;;;;;;0.40;0.40;;;;;;;;;;5278194;26;20013;-56
2024/04/19 07:51:10;;;;;;;0.20;0.13;;;;;;;;;;5275977;27;20002;-59
2024/04/19 07:53:36;;;;;;;3.47;0.63;;;;;;;;;;5265951;26;20548;-56
2024/04/19 07:56:03;;;;;;;0.20;0.20;;;;;;;;;;5278207;27;20001;-58
2024/04/19 07:58:30;;;;;;;0.28;0.10;;;;;;;;;;5277945;26;20001;-53
2024/04/19 08:00:56;;;;;;;0.40;0.20;;;;;;;;;;5278129;27;20512;-55
2024/04/19 08:03:23;;;;;;;2.33;0.70;;;;;;;;;;5276280;26;20070;-57
2024/04/19 08:06:09;;;;;;;2.38;0.30;;;;;;;;;;5213916;27;20399;-56
2024/04/19 08:08:36;;;;;;;0.52;0.40;;;;;;;;;;5213580;27;20003;-55
2024/04/19 08:11:04;;;;;;;14.90;0.63;;;;;;;;;;5214997;27;20023;-60
2024/04/19 08:13:31;;;;;;;0.70;0.45;;;;;;;;;;5241943;26;20017;-56
2024/04/19 08:16:00;;;;;;;0.15;0.15;;;;;;;;;;5254970;27;19998;-56
2024/04/19 08:18:26;;;;;;;0.85;0.70;;;;;;;;;;5254768;26;20085;-56
2024/04/19 08:20:53;;;;;;;0.20;0.20;;;;;;;;;;5256186;27;20014;-56
2024/04/19 08:23:20;;;;;;;0.22;0.22;;;;;;;;;;5253502;26;20006;-54
2024/04/19 08:25:46;;;;;;;0.30;0.20;;;;;;;;;;5254793;27;20002;-54
2024/04/19 08:28:13;;;;;;;0.35;0.30;;;;;;;;;;5255890;26;20006;-57
2024/04/19 08:30:39;;;;;;;0.10;0.10;;;;;;;;;;5253564;27;20017;-54
2024/04/19 08:33:06;;;;;;;0.30;0.25;;;;;;;;;;5255091;26;20014;-56
2024/04/19 08:35:33;;;;;;;0.00;0.00;;;;;;;;;;5254335;27;20042;-59
2024/04/19 08:37:59;;;;;;;0.45;0.43;;;;;;;;;;5284484;26;20108;-57
2024/04/19 08:40:28;;;;;;;0.22;0.22;;;;;;;;;;5291580;26;20124;-59
2024/04/19 08:42:56;;;;;;;0.47;0.30;;;;;;;;;;5292711;26;20013;-55
2024/04/19 08:45:23;;;;;;;1.85;0.30;;;;;;;;;;5289888;26;20012;-59
2024/04/19 08:47:50;;;;;;;0.30;0.20;;;;;;;;;;5291372;26;20013;-56
2024/04/19 08:50:17;;;;;;;0.20;0.20;;;;;;;;;;5292101;26;20013;-57
2024/04/19 08:52:46;;;;;;;0.70;0.25;;;;;;;;;;5290865;26;20450;-54
2024/04/19 08:55:14;;;;;;;1.58;0.68;;;;;;;;;;5290267;26;20033;-56
2024/04/19 08:57:42;;;;;;;0.52;0.28;;;;;;;;;;5288949;26;20022;-58
2024/04/19 09:00:09;;;;;;;0.10;0.10;;;;;;;;;;5291137;26;20009;-55
2024/04/19 09:02:56;;;;;;;0.10;0.10;;;;;;;;;;5285618;26;20010;-54
2024/04/19 09:05:22;;;;;;;0.30;0.30;;;;;;;;;;5289402;26;20012;-58
2024/04/19 09:07:50;;;;;;;0.73;0.28;;;;;;;;;;5288578;26;20006;-56
2024/04/19 09:10:37;;;;;;;0.55;0.40;;;;;;;;;;5274789;26;20521;-55
2024/04/19 09:13:03;;;;;;;1.35;0.40;;;;;;;;;;5249659;27;20217;-63
2024/04/19 09:15:50;;;;;;;0.15;0.13;;;;;;;;;;5257708;27;19999;-54
2024/04/19 09:18:16;;;;;;;1.75;0.40;;;;;;;;;;5258282;27;19998;-55
2024/04/19 09:20:45;;;;;;;0.30;0.30;;;;;;;;;;5253571;27;20492;-56
2024/04/19 09:23:32;;;;;;;0.73;0.40;;;;;;;;;;5224198;27;20011;-55
2024/04/19 09:26:20;;;;;;;0.40;0.30;;;;;;;;;;5187481;27;20011;-56
2024/04/19 09:28:47;;;;;;;0.20;0.20;;;;;;;;;;5185016;27;20003;-55
2024/04/19 09:31:14;;;;;;;0.52;0.38;;;;;;;;;;5155664;27;20000;-56
2024/04/19 09:33:41;;;;;;;0.60;0.60;;;;;;;;;;5182192;27;20026;-55
2024/04/19 09:36:08;;;;;;;0.22;0.22;;;;;;;;;;5178599;27;20008;-53
2024/04/19 09:38:39;;;;;;;0.68;0.32;;;;;;;;;;5177761;27;20004;-53
2024/04/19 09:41:09;;;;;;;0.30;0.30;;;;;;;;;;5180016;27;20011;-56
2024/04/19 09:43:37;;;;;;;0.80;0.38;;;;;;;;;;5179962;27;20010;-56
2024/04/19 09:46:04;;;;;;;0.32;0.30;;;;;;;;;;5177466;27;20034;-54
2024/04/19 09:48:38;;;;;;;4.18;0.63;;;;;;;;;;5177004;27;20040;-61
2024/04/19 09:51:06;;;;;;;0.90;0.50;;;;;;;;;;5167110;27;20640;-57
2024/04/19 09:53:39;;;;;;;1.13;0.40;;;;;;;;;;5186179;27;20139;-56
2024/04/19 09:56:24;;;;;;;0.85;0.40;;;;;;;;;;5278413;27;20437;-56
2024/04/19 09:58:52;;;;;;;1.65;0.32;;;;;;;;;;5290970;26;20002;-56
2024/04/19 10:01:19;;;;;;;2.72;0.43;;;;;;;;;;5292475;26;20017;-53
2024/04/19 10:03:46;;;;;;;0.50;0.40;;;;;;;;;;5289694;26;20002;-58
2024/04/19 10:06:13;;;;;;;0.70;0.47;;;;;;;;;;5291209;26;20001;-57
2024/04/19 10:08:40;;;;;;;0.38;0.38;;;;;;;;;;5274181;26;20005;-56
2024/04/19 10:11:07;;;;;;;0.73;0.45;;;;;;;;;;5292631;26;20002;-55
2024/04/19 10:13:34;;;;;;;0.73;0.45;;;;;;;;;;5282347;26;20516;-62
2024/04/19 10:16:00;;;;;;;0.50;0.40;;;;;;;;;;5282812;26;20010;-57
2024/04/19 10:18:28;;;;;;;1.70;0.40;;;;;;;;;;5290802;26;20005;-55
2024/04/19 10:20:54;;;;;;;0.68;0.32;;;;;;;;;;5291905;26;20031;-57
2024/04/19 10:23:21;;;;;;;0.57;0.52;;;;;;;;;;5291334;26;20379;-59
2024/04/19 10:25:48;;;;;;;0.85;0.43;;;;;;;;;;5289261;26;20565;-57
2024/04/19 10:28:17;;;;;;;0.55;0.50;;;;;;;;;;5288389;26;20051;-59
2024/04/19 10:30:44;;;;;;;6.82;0.90;;;;;;;;;;5288152;26;20010;-54
2024/04/19 10:33:11;;;;;;;2.95;0.50;;;;;;;;;;5278454;26;20035;-58
2024/04/19 10:35:38;;;;;;;1.52;0.35;;;;;;;;;;5278808;26;20013;-54
2024/04/19 10:38:05;;;;;;;0.82;0.50;;;;;;;;;;5321500;26;20089;-55
2024/04/19 10:40:33;;;;;;;0.70;0.50;;;;;;;;;;5293059;26;20632;-60
2024/04/19 10:43:03;;;;;;;1.77;0.50;;;;;;;;;;5295186;26;20091;-57
2024/04/19 10:45:34;;;;;;;2.70;0.38;;;;;;;;;;5318216;26;20013;-57
2024/04/19 10:48:02;;;;;;;0.28;0.28;;;;;;;;;;5324251;26;22374;-57
2024/04/19 10:50:29;;;;;;;2.85;0.63;;;;;;;;;;5322937;26;20016;-56
2024/04/19 10:52:57;;;;;;;2.70;0.52;;;;;;;;;;5325160;26;20019;-57
2024/04/19 10:55:27;;;;;;;0.80;0.50;;;;;;;;;;5315570;26;20059;-57
2024/04/19 10:57:54;;;;;;;2.08;0.82;;;;;;;;;;5326025;26;20152;-56
2024/04/19 11:00:22;;;;;;;1.10;0.47;;;;;;;;;;5325332;26;20048;-55
2024/04/19 11:02:49;;;;;;;0.90;0.50;;;;;;;;;;5295481;26;20001;-56
2024/04/19 11:05:16;;;;;;;0.55;0.55;;;;;;;;;;5326378;26;20001;-53
2024/04/19 11:07:43;;;;;;;1.70;0.45;;;;;;;;;;5324484;26;20078;-54
2024/04/19 11:10:10;;;;;;;0.55;0.52;;;;;;;;;;5325708;26;20527;-57
2024/04/19 11:12:36;;;;;;;1.20;0.90;;;;;;;;;;5325252;26;20045;-60
2024/04/19 11:15:03;;;;;;;1.10;0.50;;;;;;;;;;5324116;26;20019;-55
2024/04/19 11:17:30;;;;;;;0.35;0.35;;;;;;;;;;5325333;26;20021;-55
2024/04/19 11:20:16;;;;;;;0.55;0.47;;;;;;;;;;5254917;27;20478;-56
2024/04/19 11:22:43;;;;;;;2.03;0.68;;;;;;;;;;5242111;27;20085;-58
2024/04/19 11:25:10;;;;;;;0.98;0.43;;;;;;;;;;5224273;27;20014;-57
2024/04/19 11:27:37;;;;;;;3.10;0.52;;;;;;;;;;5223363;27;19995;-59
2024/04/19 11:30:04;;;;;;;0.43;0.43;;;;;;;;;;5221925;27;20118;-58
2024/04/19 11:32:32;;;;;;;1.40;0.40;;;;;;;;;;5223183;27;22496;-55
2024/04/19 11:35:00;;;;;;;0.50;0.50;;;;;;;;;;5165951;27;21257;-58
2024/04/19 11:37:27;;;;;;;2.00;0.40;;;;;;;;;;5222378;27;20142;-56
2024/04/19 11:39:54;;;;;;;0.55;0.50;;;;;;;;;;5222826;27;20081;-57
2024/04/19 11:42:22;;;;;;;0.40;0.40;;;;;;;;;;5222931;27;20007;-57
2024/04/19 11:44:48;;;;;;;0.75;0.30;;;;;;;;;;5223099;27;20003;-54
2024/04/19 11:47:15;;;;;;;0.43;0.40;;;;;;;;;;5223402;27;20148;-58
2024/04/19 11:49:42;;;;;;;4.00;0.70;;;;;;;;;;5209606;27;20076;-57
2024/04/19 11:52:11;;;;;;;0.70;0.70;;;;;;;;;;5161972;27;20053;-56
2024/04/19 11:54:38;;;;;;;1.63;0.85;;;;;;;;;;5223902;27;20042;-57
2024/04/19 11:57:06;;;;;;;0.52;0.40;;;;;;;;;;5214045;27;20013;-55
2024/04/19 11:59:34;;;;;;;1.25;0.45;;;;;;;;;;5289648;26;20017;-54
2024/04/19 12:02:01;;;;;;;0.98;0.45;;;;;;;;;;5288681;26;20019;-55
2024/04/19 12:04:28;;;;;;;0.73;0.73;;;;;;;;;;5291700;26;20071;-55
2024/04/19 12:06:55;;;;;;;0.80;0.80;;;;;;;;;;5292743;26;20010;-53
2024/04/19 12:09:21;;;;;;;0.43;0.40;;;;;;;;;;5294063;26;20086;-56
2024/04/19 12:11:48;;;;;;;4.57;0.70;;;;;;;;;;5288100;26;20506;-57
2024/04/19 12:14:15;;;;;;;0.47;0.43;;;;;;;;;;5311319;26;20840;-56
2024/04/19 12:16:41;;;;;;;4.93;0.47;;;;;;;;;;5298439;26;20009;-56
2024/04/19 12:19:08;;;;;;;0.30;0.28;;;;;;;;;;5302077;26;20487;-53
2024/04/19 12:21:34;;;;;;;2.03;1.10;;;;;;;;;;5299946;26;20002;-55
2024/04/19 12:24:01;;;;;;;2.53;0.45;;;;;;;;;;5292982;27;20291;-52
2024/04/19 12:26:28;;;;;;;0.60;0.47;;;;;;;;;;5290739;26;20013;-56
2024/04/19 12:29:14;;;;;;;3.08;0.50;;;;;;;;;;5292269;26;20001;-53
2024/04/19 12:31:41;;;;;;;0.80;0.80;;;;;;;;;;5282459;27;20017;-58
2024/04/19 12:34:08;;;;;;;2.35;0.60;;;;;;;;;;5270201;26;20627;-55
2024/04/19 12:36:34;;;;;;;0.68;0.45;;;;;;;;;;5264136;27;20013;-56
2024/04/19 12:39:02;;;;;;;3.63;0.43;;;;;;;;;;5284773;26;20019;-55
2024/04/19 12:41:33;;;;;;;0.40;0.40;;;;;;;;;;5286173;26;20017;-54
2024/04/19 12:44:00;;;;;;;0.65;0.20;;;;;;;;;;5262469;27;20013;-54
2024/04/19 12:46:26;;;;;;;0.40;0.40;;;;;;;;;;5259594;26;20045;-56
2024/04/19 12:48:58;;;;;;;0.45;0.40;;;;;;;;;;5258631;27;20758;-54
2024/04/19 12:51:24;;;;;;;0.90;0.50;;;;;;;;;;5271427;26;20006;-59
2024/04/19 12:54:11;;;;;;;0.65;0.40;;;;;;;;;;5216828;27;20033;-55
2024/04/19 12:56:40;;;;;;;0.70;0.50;;;;;;;;;;5221172;27;20007;-54
2024/04/19 12:59:06;;;;;;;0.63;0.30;;;;;;;;;;5215199;27;20063;-55
2024/04/19 13:01:33;;;;;;;0.35;0.10;;;;;;;;;;5216960;27;20003;-55
2024/04/19 13:04:00;;;;;;;1.02;0.32;;;;;;;;;;5215651;27;20010;-54
2024/04/19 13:06:27;;;;;;;0.45;0.32;;;;;;;;;;5217395;27;20007;-59
2024/04/19 13:08:54;;;;;;;1.73;0.93;;;;;;;;;;5227545;27;20019;-58
2024/04/19 13:11:21;;;;;;;0.50;0.40;;;;;;;;;;5254335;27;20091;-56
2024/04/19 13:13:52;;;;;;;1.55;0.30;;;;;;;;;;5250133;27;20324;-57
2024/04/19 13:16:22;;;;;;;0.45;0.32;;;;;;;;;;5247623;27;20011;-62
2024/04/19 13:18:48;;;;;;;0.38;0.25;;;;;;;;;;5248542;27;20025;-60
2024/04/19 13:21:15;;;;;;;0.73;0.60;;;;;;;;;;5250241;27;20140;-60
2024/04/19 13:23:42;;;;;;;1.65;0.57;;;;;;;;;;5249127;26;20010;-58
2024/04/19 13:26:09;;;;;;;1.67;0.30;;;;;;;;;;5248144;27;21027;-59
2024/04/19 13:28:39;;;;;;;0.77;0.40;;;;;;;;;;5243588;27;20003;-58
2024/04/19 13:31:08;;;;;;;0.22;0.20;;;;;;;;;;5256811;27;20024;-57
2024/04/19 13:33:35;;;;;;;3.20;0.40;;;;;;;;;;5288945;26;20013;-59
2024/04/19 13:36:02;;;;;;;0.47;0.40;;;;;;;;;;5290208;26;20013;-58
2024/04/19 13:38:48;;;;;;;0.85;0.30;;;;;;;;;;5285973;27;20072;-58
2024/04/19 13:41:15;;;;;;;0.50;0.30;;;;;;;;;;5288547;27;20025;-61
2024/04/19 13:43:42;;;;;;;0.57;0.45;;;;;;;;;;5287505;26;20097;-60
2024/04/19 13:46:08;;;;;;;0.88;0.63;;;;;;;;;;5260090;27;20016;-57
2024/04/19 13:48:38;;;;;;;4.85;0.73;;;;;;;;;;5286983;26;20005;-60
2024/04/19 13:51:05;;;;;;;1.70;0.40;;;;;;;;;;5288469;27;20053;-60
2024/04/19 13:53:35;;;;;;;0.47;0.22;;;;;;;;;;5287314;27;20001;-58
2024/04/19 13:56:03;;;;;;;0.30;0.22;;;;;;;;;;5289088;27;20001;-57
2024/04/19 13:58:30;;;;;;;0.90;0.80;;;;;;;;;;5285562;26;20009;-58
2024/04/19 14:00:57;;;;;;;0.03;0.03;;;;;;;;;;5286031;27;20872;-57
2024/04/19 14:03:24;;;;;;;0.45;0.30;;;;;;;;;;5258677;27;23009;-58
2024/04/19 14:05:51;;;;;;;0.52;0.35;;;;;;;;;;5292004;26;20002;-58
2024/04/19 14:08:17;;;;;;;0.40;0.35;;;;;;;;;;5289743;27;20707;-57
2024/04/19 14:10:45;;;;;;;0.20;0.20;;;;;;;;;;5260825;27;21108;-57
2024/04/19 14:13:12;;;;;;;0.38;0.32;;;;;;;;;;5291340;26;20065;-58
2024/04/19 14:15:39;;;;;;;0.50;0.20;;;;;;;;;;5259309;26;20005;-58
2024/04/19 14:18:05;;;;;;;0.20;0.20;;;;;;;;;;5312968;26;20114;-54
2024/04/19 14:20:32;;;;;;;1.48;0.10;;;;;;;;;;5293320;26;20422;-57
2024/04/19 14:22:59;;;;;;;4.22;0.28;;;;;;;;;;5294678;26;20020;-57
2024/04/19 14:25:26;;;;;;;0.55;0.20;;;;;;;;;;5293576;26;20032;-60
2024/04/19 14:27:52;;;;;;;0.45;0.20;;;;;;;;;;5291727;26;20087;-59
2024/04/19 14:30:19;;;;;;;0.17;0.17;;;;;;;;;;5293965;26;20046;-58
2024/04/19 14:32:45;;;;;;;0.60;0.25;;;;;;;;;;5293073;26;20091;-57
2024/04/19 14:35:12;;;;;;;0.35;0.10;;;;;;;;;;5294750;26;20595;-57
2024/04/19 14:37:39;;;;;;;5.78;0.47;;;;;;;;;;5307098;26;20016;-62
2024/04/19 14:40:06;;;;;;;0.20;0.20;;;;;;;;;;5294759;26;20005;-61
2024/04/19 14:42:33;;;;;;;0.20;0.20;;;;;;;;;;5291275;26;20060;-58
2024/04/19 14:45:00;;;;;;;0.63;0.38;;;;;;;;;;5294939;26;20036;-59
2024/04/19 14:47:27;;;;;;;0.40;0.30;;;;;;;;;;5268231;26;20051;-59
2024/04/19 14:49:53;;;;;;;0.40;0.30;;;;;;;;;;5292037;26;20056;-58